• Join FlightAware (Why Join?)
  • Login
  • US Flag 
10:34AM EST


 

Airport Tracker/Info


-or-


 

Live Flight TrackerFlight Track Log ✈ N132CE ✈ 16-Jul-2013 ✈ KRIC - KHOU

Flight Track Log - Related Links

Times and Time Zones

All times are in EDT time to prevent confusion due to time zone crossing. See the N132CE flight status page for this flight to view local times or setup timezone preferences in your user account.

Time Position Orientation Groundspeed Altitude Reporting Facility
EDT Latitude Longitude Course Direction KTS MPH feet Rate Location/Type
04:38PM 37.5667 -77.3500 254° West 213 245 3,900  Level Potomac TRACON
04:39PM 37.6233 -77.4142 318° Northwest 235 270 7,300 2,280 Climbing Washington Center
04:40PM 37.5867 -77.4969 241° Southwest 203 234 9,000 1,260 Climbing Washington Center
04:41PM 37.5314 -77.5689 226° Southwest 225 259 9,900 1,080 Climbing Washington Center
04:42PM 37.4894 -77.6989 248° West 320 368 11,200 2,460 Climbing Washington Center
04:43PM 37.3142 -78.1363 254° West  Level FlightAware Approximate
04:43PM 37.4542 -77.8050 247° West 332 382 14,800  Level Washington Center
04:44PM 37.4189 -77.9086 247° West 332 382 17,100 2,040 Climbing Washington Center
04:45PM 37.3833 -78.0175 248° West 332 382 19,000 1,380 Climbing Washington Center
04:46PM 37.3475 -78.1364 249° West 345 397 20,000 480 Climbing Washington Center
04:47PM 37.3028 -78.2681 247° West 379 436 20,000  Level Washington Center
04:48PM 37.2708 -78.3922 252° West 409 471 20,000  Level Washington Center
04:49PM 37.2383 -78.5344 254° West 422 486 20,000 840 Level Washington Center
04:50PM 37.2056 -78.6689 253° West 422 486 21,800 1,440 Climbing Washington Center
04:51PM 37.1750 -78.8058 254° West 411 473 23,000 1,380 Climbing Washington Center
04:52PM 37.1372 -78.9606 253° West 421 484 24,600 960 Climbing Washington Center
04:53PM 37.1039 -79.1050 254° West 427 491 25,000 180 Climbing Washington Center
04:54PM 37.0703 -79.2517 254° West 433 498 25,000  Level Washington Center
04:55PM 37.0367 -79.3958 254° West 438 504 25,000  Level Washington Center
04:56PM 36.9967 -79.5344 250° West 433 498 25,000 120 Level Washington Center
04:57PM 36.9328 -79.6375 232° Southwest 427 491 25,300 840 Climbing Washington Center
04:58PM 36.8442 -79.7289 220° Southwest 417 480 26,700 1,680 Climbing Washington Center
04:59PM 36.7514 -79.8097 215° Southwest 411 473 28,700 2,160 Climbing Washington Center
05:00PM 36.6697 -79.8797 215° Southwest 401 461 31,100 1,620 Climbing Atlanta Center
05:01PM 36.5622 -79.9681 213° Southwest 396 456 32,000 420 Climbing Atlanta Center
05:02PM 36.4669 -80.0478 214° Southwest 403 464 32,000  Level Atlanta Center
05:03PM 36.3692 -80.1247 212° Southwest 435 501 32,000 660 Level Atlanta Center
05:04PM 36.2633 -80.2097 213° Southwest 448 516 33,400 960 Climbing Atlanta Center
05:05PM 36.1475 -80.3025 213° Southwest 454 522 34,000 900 Climbing Atlanta Center
05:06PM 36.0547 -80.4122 224° Southwest 465 535 35,300 960 Climbing Atlanta Center
05:07PM 35.9928 -80.5047 230° Southwest 457 526 36,000 600 Climbing Atlanta Center
05:08PM 35.9111 -80.6442 234° Southwest 457 526 36,600 1,020 Climbing Atlanta Center
05:09PM 35.8394 -80.7675 234° Southwest 457 526 38,100 1,320 Climbing Atlanta Center
05:10PM 35.7694 -80.8856 234° Southwest 442 509 39,300 1,080 Climbing Atlanta Center
05:11PM 35.6972 -81.0008 232° Southwest 432 497 40,300 720 Climbing Atlanta Center
05:12PM 35.6231 -81.1186 232° Southwest 425 489 40,800 540 Climbing Atlanta Center
05:13PM 35.5467 -81.2439 233° Southwest 425 489 41,400 540 Climbing Atlanta Center
05:14PM 35.4744 -81.3686 235° Southwest 444 511 41,900 480 Climbing Atlanta Center
05:15PM 35.4139 -81.4700 234° Southwest 437 503 42,400 360 Climbing Atlanta Center
05:16PM 35.3453 -81.5817 233° Southwest 430 495 42,700 240 Climbing Atlanta Center
05:17PM 35.2744 -81.6958 233° Southwest 430 495 42,900 120 Climbing Atlanta Center
05:18PM 35.1994 -81.8172 233° Southwest 438 504 43,000  Climbing Atlanta Center
05:19PM 35.1244 -81.9361 232° Southwest 449 517 43,000  Level Atlanta Center
05:20PM 35.0431 -82.0700 233° Southwest 454 522 43,000 -60 Level Atlanta Center
05:21PM 34.9658 -82.1936 233° Southwest 454 522 42,900  Descending Atlanta Center
05:22PM 34.8964 -82.2989 231° Southwest 454 522 43,000  Climbing Atlanta Center
05:23PM 34.8189 -82.4244 233° Southwest 459 528 43,000  Level Atlanta Center
05:24PM 34.7389 -82.5525 233° Southwest 472 543 43,000  Level Atlanta Center
05:25PM 34.6611 -82.6750 232° Southwest 467 537 43,000 -60 Level Atlanta Center
05:26PM 34.5792 -82.8050 233° Southwest 478 550 42,900  Descending Atlanta Center
05:27PM 34.4967 -82.9297 231° Southwest 472 543 43,000  Climbing Atlanta Center
05:28PM 34.4206 -83.0517 233° Southwest 465 535 42,900  Descending Atlanta Center
05:29PM 34.3381 -83.1758 231° Southwest 470 541 43,000  Climbing Atlanta Center
05:30PM 34.2575 -83.3000 232° Southwest 470 541 43,000  Level Atlanta Center
05:31PM 34.1725 -83.4336 232° Southwest 470 541 43,000 -60 Level Atlanta Center
05:32PM 34.0939 -83.5572 232° Southwest 465 535 42,900  Descending Atlanta Center
05:33PM 34.0108 -83.6806 231° Southwest 465 535 43,000  Climbing Atlanta Center
05:34PM 33.9297 -83.8036 232° Southwest 471 542 42,900 -60 Descending Atlanta Center
05:35PM 33.8506 -83.9264 232° Southwest 471 542 42,900  Level Atlanta Center
05:36PM 33.7692 -84.0439 230° Southwest 466 536 42,900  Level Atlanta Center
05:37PM 33.6897 -84.1686 233° Southwest 472 543 43,000  Climbing Atlanta Center
05:38PM 33.6103 -84.2908 232° Southwest 472 543 42,900 -60 Descending Atlanta Center
05:39PM 33.5350 -84.3978 230° Southwest 467 537 42,900  Level Atlanta Center
05:40PM 33.4572 -84.5169 232° Southwest 467 537 43,000  Climbing Atlanta Center
05:41PM 33.3753 -84.6383 231° Southwest 467 537 43,000 -60 Level Atlanta Center
05:42PM 33.2892 -84.7694 232° Southwest 462 532 42,900  Descending Atlanta Center
05:43PM 33.2089 -84.8856 230° Southwest 462 532 43,000  Climbing Atlanta Center
05:44PM 33.1289 -85.0036 231° Southwest 467 537 42,900  Descending Atlanta Center
05:45PM 33.0506 -85.1244 232° Southwest 467 537 43,000  Climbing Atlanta Center
05:46PM 32.9828 -85.2225 231° Southwest 460 529 43,000 -60 Level Atlanta Center
05:47PM 32.9025 -85.3353 230° Southwest 455 524 42,900  Descending Atlanta Center
05:48PM 32.8217 -85.4578 232° Southwest 465 535 43,000  Climbing Atlanta Center
05:49PM 32.7411 -85.5725 230° Southwest 465 535 42,900 -60 Descending Atlanta Center
05:50PM 32.6603 -85.6919 231° Southwest 465 535 42,900  Level Atlanta Center
05:51PM 32.5814 -85.8039 230° Southwest 465 535 42,900  Level Atlanta Center
05:52PM 32.4917 -85.9400 232° Southwest 474 545 42,900  Level Atlanta Center
05:53PM 32.4106 -86.0539 230° Southwest 473 544 43,000  Climbing Atlanta Center
05:54PM 32.3250 -86.1722 229° Southwest 468 539 43,000 -60 Level Atlanta Center
05:55PM 32.2439 -86.2883 230° Southwest 468 539 42,900 -60 Descending Atlanta Center
05:56PM 32.1750 -86.3919 232° Southwest 476 548 42,900  Level Atlanta Center
05:57PM 32.0933 -86.5125 231° Southwest 463 533 43,000  Climbing Atlanta Center
05:58PM 32.0075 -86.6278 229° Southwest 468 539 42,900 -60 Descending Atlanta Center
05:59PM 31.9108 -86.7522 228° Southwest 468 539 42,900  Level Atlanta Center
06:00PM 31.8289 -86.8694 231° Southwest 473 544 43,000  Climbing Atlanta Center
06:02PM 31.7100 -87.0281 229° Southwest 460 529 42,900  Descending Houston Center
06:03PM 31.6281 -87.1411 230° Southwest 456 525 43,000  Climbing Houston Center
06:04PM 31.5458 -87.2547 230° Southwest 457 526 42,900  Descending Houston Center
06:05PM 31.4619 -87.3683 229° Southwest 459 528 43,000  Climbing Houston Center
06:06PM 31.3633 -87.5031 229° Southwest 456 525 42,900 -60 Descending Houston Center
06:07PM 31.2806 -87.6150 229° Southwest 455 524 42,900  Level Houston Center
06:08PM 31.1958 -87.7281 229° Southwest 464 534 42,900  Level Houston Center
06:09PM 31.1117 -87.8406 229° Southwest 462 532 42,900  Level Houston Center
06:10PM 31.0306 -87.9525 230° Southwest 455 524 42,900  Level Houston Center
06:11PM 30.9486 -88.0681 230° Southwest 462 532 42,900  Level Houston Center
06:12PM 30.8864 -88.2294 246° West 458 527 42,900  Level Houston Center
06:13PM 30.8406 -88.3628 248° West 440 506 42,900  Level Houston Center
06:14PM 30.7925 -88.4922 247° West 437 503 42,900  Level Houston Center
06:15PM 30.7394 -88.6331 246° West 436 502 42,900  Level Houston Center
06:16PM 30.6919 -88.7611 247° West 433 498 43,000  Climbing Houston Center
06:17PM 30.6439 -88.8883 246° West 430 495 42,900 -60 Descending Houston Center
06:18PM 30.6028 -89.0039 248° West 428 493 42,900  Level Houston Center
06:19PM 30.5461 -89.1572 247° West 429 494 42,900  Level Houston Center
06:20PM 30.4978 -89.2833 246° West 429 494 42,900  Level Houston Center
06:21PM 30.4511 -89.4114 247° West 429 494 42,900  Level Houston Center
06:22PM 30.4039 -89.5367 246° West 425 489 42,900  Level Houston Center
06:23PM 30.3475 -89.6761 245° Southwest 435 501 42,900 60 Level Houston Center
06:24PM 30.2964 -89.8022 245° Southwest 436 502 43,100 240 Climbing Houston Center
06:25PM 30.2517 -89.9294 248° West 436 502 43,500 420 Climbing Houston Center
06:26PM 30.2047 -90.0519 246° West 425 489 44,000 480 Climbing Houston Center
06:27PM 30.1575 -90.1739 246° West 418 481 44,500 420 Climbing Houston Center
06:28PM 30.1006 -90.3183 246° West 415 478 44,900 180 Climbing Houston Center
06:29PM 30.0531 -90.4419 246° West 419 482 44,900  Level Houston Center
06:30PM 30.0047 -90.5661 246° West 423 487 44,900  Level Houston Center
06:31PM 29.9553 -90.6908 245° Southwest 427 491 44,900  Level Houston Center
06:32PM 29.9064 -90.8169 246° West 430 495 44,900  Level Houston Center
06:34PM 29.8556 -90.9433 245° Southwest 434 499 44,900  Level Houston Center
06:35PM 29.8058 -91.0706 246° West 435 501 44,900 -300 Level Houston Center
06:36PM 29.7456 -91.2219 245° Southwest 435 501 44,400 -540 Descending Houston Center
06:37PM 29.6961 -91.3475 246° West 433 498 43,900 -540 Descending Houston Center
06:38PM 29.6467 -91.4731 246° West 431 496 43,400 -600 Descending Houston Center
06:39PM 29.5950 -91.5994 245° Southwest 434 499 42,700 -840 Descending Houston Center
06:40PM 29.5411 -91.7331 245° Southwest 452 520 41,700 -1,020 Descending Houston Center
06:41PM 29.4872 -91.8689 246° West 463 533 40,700 -960 Descending Houston Center
06:42PM 29.4331 -92.0019 245° Southwest 463 533 39,800 -1,080 Descending Houston Center
06:43PM 29.3681 -92.1600 245° Southwest 457 526 38,500 -960 Descending Houston Center
06:44PM 29.3150 -92.2900 245° Southwest 451 519 37,900 -300 Descending Houston Center
06:45PM 29.2686 -92.4228 248° West 449 517 37,900  Level Houston Center
06:46PM 29.2575 -92.5722 265° West 467 537 37,900  Level Houston Center
06:47PM 29.2589 -92.7200 271° West 467 537 37,900  Level Houston Center
06:48PM 29.2606 -92.8692 271° West 467 537 37,900 -840 Level Houston Center
06:49PM 29.2614 -93.0183 270° West 468 539 36,200 -2,400 Descending Houston Center
06:50PM 29.2628 -93.1914 271° West 457 526 33,000 -2,520 Descending Houston Center
06:51PM 29.2597 -93.3319 269° West 444 511 31,100 -2,100 Descending Houston Center
06:52PM 29.2594 -93.4714 270° West 439 505 28,700 -2,400 Descending Houston Center
06:53PM 29.2622 -93.6136 271° West 444 511 26,300 -2,400 Descending Houston Center
06:54PM 29.2636 -93.7536 271° West 443 510 23,900 -2,400 Descending Houston Center
06:55PM 29.2647 -93.8992 271° West 434 499 21,400 -2,280 Descending Houston Center
06:56PM 29.2661 -94.0331 271° West 424 488 19,200 -2,100 Descending Houston Center
06:57PM 29.2664 -94.1661 270° West 421 484 17,100 -2,220 Descending Houston Center
06:58PM 29.2658 -94.2864 270° West 409 471 15,100 -2,100 Descending Houston Center
06:59PM 29.2678 -94.4169 271° West 393 452 12,900 -1,560 Descending Houston Center
07:00PM 29.2894 -94.5256 283° West 372 428 12,000 -1,140 Descending Houston Center
07:01PM 29.3386 -94.6200 301° West 342 394 11,000 -1,080 Descending Houston Center
07:02PM 29.3761 -94.7039 297° West 323 372 10,100 -480 Descending Houston Center
07:03PM 29.4311 -94.8147 300° West 325 374 10,000 -180 Descending Houston Center
07:04PM 29.4756 -94.9075 299° West 336 387 9,700 -840 Descending Houston Center
07:05PM 29.5122 -94.9822 299° West 287 330 8,400 -1,260 Descending Houston Center
07:06PM 29.5508 -95.0592 300° West 275 316 7,300 -1,140 Descending Houston Center
07:07PM 29.5811 -95.1347 295° West 288 331 6,200 -960 Descending Houston Center
07:07PM 29.5836 -95.1617 276° West 294 338 6,000 -180 Descending Houston Center
07:08PM 29.5631 -95.2331 252° West 242 278 6,000 -180 Level Houston Center
07:09PM 29.5175 -95.2867 226° Southwest 234 269 5,700 -780 Descending Houston Center
07:10PM 29.4861 -95.3336 232° Southwest 205 236 4,500 -1,440 Descending Houston Center
07:11PM 29.5339 -95.3733 324° Northwest 193 222 2,800 -1,320 Descending Houston Center
07:12PM 29.5803 -95.3511 23° Northeast 161 185 1,700 -960 Descending Houston Center
07:13PM 29.6069 -95.3214 44° Northeast 136 157 1,000 -780 Descending Houston Center
07:14PM 29.6317 -95.2944 43° Northeast 114 131 200 -720 Descending Houston Center